Time;durP1;ratioP1;P1;durP2;ratioP2;P2;SDS_P1;SDS_P2;PMS_P1;PMS_P2;Temp;Humidity;BMP_temperature;BMP_pressure;BME280_temperature;BME280_humidity;BME280_pressure;Samples;Min_cycle;Max_cycle;Signal;HPM_P1;HPM_P2
2021/04/01 00:00:52;;;;;;;42.33;25.73;;;;;;;;;;5115457;28;20529;-70
2021/04/01 00:03:20;;;;;;;53.47;27.10;;;;;;;;;;5115122;28;20950;-70
2021/04/01 00:05:46;;;;;;;43.60;26.10;;;;;;;;;;5114697;28;21003;-71
2021/04/01 00:08:14;;;;;;;42.37;25.43;;;;;;;;;;5114705;28;20533;-70
2021/04/01 00:10:41;;;;;;;41.37;26.90;;;;;;;;;;5115043;28;20868;-70
2021/04/01 00:13:08;;;;;;;40.50;24.57;;;;;;;;;;5114820;28;21022;-70
2021/04/01 00:15:36;;;;;;;38.67;25.50;;;;;;;;;;5115441;28;20544;-70
2021/04/01 00:18:03;;;;;;;44.87;26.00;;;;;;;;;;5114813;28;20551;-70
2021/04/01 00:20:31;;;;;;;43.37;27.07;;;;;;;;;;5114826;28;20836;-70
2021/04/01 00:22:57;;;;;;;44.10;28.73;;;;;;;;;;5115024;28;20466;-70
2021/04/01 00:25:24;;;;;;;40.93;25.33;;;;;;;;;;5114411;28;20530;-70
2021/04/01 00:27:51;;;;;;;43.40;26.20;;;;;;;;;;5114958;28;21011;-69
2021/04/01 00:30:19;;;;;;;43.70;26.87;;;;;;;;;;5114316;28;20535;-69
2021/04/01 00:32:47;;;;;;;46.30;27.83;;;;;;;;;;5114829;28;20438;-69
2021/04/01 00:35:14;;;;;;;41.07;25.53;;;;;;;;;;5114236;28;20966;-69
2021/04/01 00:37:41;;;;;;;44.53;28.47;;;;;;;;;;5114775;28;20470;-69
2021/04/01 00:40:09;;;;;;;46.87;28.00;;;;;;;;;;5114451;28;20875;-69
2021/04/01 00:42:36;;;;;;;38.30;25.03;;;;;;;;;;5113663;28;20481;-70
2021/04/01 00:45:05;;;;;;;47.23;28.23;;;;;;;;;;5114076;28;20530;-70
2021/04/01 00:47:36;;;;;;;42.33;27.40;;;;;;;;;;5114322;28;20474;-70
2021/04/01 00:50:03;;;;;;;46.23;28.23;;;;;;;;;;5115098;27;20435;-69
2021/04/01 00:52:30;;;;;;;48.17;27.93;;;;;;;;;;5114524;28;20499;-70
2021/04/01 00:54:57;;;;;;;43.87;27.07;;;;;;;;;;5114088;28;20927;-70
2021/04/01 00:57:24;;;;;;;40.93;26.47;;;;;;;;;;5113837;28;20563;-70
2021/04/01 00:59:51;;;;;;;43.90;26.50;;;;;;;;;;5114177;28;20445;-70
2021/04/01 01:02:18;;;;;;;45.30;27.27;;;;;;;;;;5113763;28;20959;-69
2021/04/01 01:04:45;;;;;;;44.57;27.00;;;;;;;;;;5113872;28;21002;-70
2021/04/01 01:07:12;;;;;;;42.13;26.43;;;;;;;;;;5113946;28;20426;-70
2021/04/01 01:09:38;;;;;;;41.50;26.40;;;;;;;;;;5114647;28;20445;-70
2021/04/01 01:12:07;;;;;;;41.10;25.20;;;;;;;;;;5114549;28;20535;-70
2021/04/01 01:14:34;;;;;;;43.93;26.53;;;;;;;;;;5114508;28;20580;-70
2021/04/01 01:17:01;;;;;;;40.53;26.93;;;;;;;;;;5113983;28;20430;-70
2021/04/01 01:19:28;;;;;;;38.43;25.57;;;;;;;;;;5113898;28;20558;-70
2021/04/01 01:21:55;;;;;;;41.37;26.90;;;;;;;;;;5113950;28;20480;-70
2021/04/01 01:24:23;;;;;;;40.60;26.93;;;;;;;;;;5113937;28;20544;-70
2021/04/01 01:26:49;;;;;;;40.17;26.40;;;;;;;;;;5114021;28;20445;-70
2021/04/01 01:29:16;;;;;;;44.10;26.60;;;;;;;;;;5113757;28;20995;-70
2021/04/01 01:31:46;;;;;;;44.97;26.10;;;;;;;;;;5113773;28;20568;-70
2021/04/01 01:34:13;;;;;;;44.20;26.37;;;;;;;;;;5113878;28;20433;-70
2021/04/01 01:36:40;;;;;;;39.77;25.50;;;;;;;;;;5113536;28;20443;-70
2021/04/01 01:39:06;;;;;;;41.60;26.90;;;;;;;;;;5114261;28;20506;-70
2021/04/01 01:41:34;;;;;;;40.27;25.70;;;;;;;;;;5113730;28;20442;-69
2021/04/01 01:44:02;;;;;;;51.47;27.13;;;;;;;;;;5113948;28;20481;-69
2021/04/01 01:46:29;;;;;;;43.47;26.90;;;;;;;;;;5113886;28;20430;-69
2021/04/01 01:48:56;;;;;;;45.43;27.80;;;;;;;;;;5113714;28;20872;-70
2021/04/01 01:51:23;;;;;;;43.83;27.10;;;;;;;;;;5113357;28;20445;-69
2021/04/01 01:53:50;;;;;;;46.67;27.00;;;;;;;;;;5114954;28;20906;-69
2021/04/01 01:56:19;;;;;;;39.83;25.83;;;;;;;;;;5118345;28;20530;-70
2021/04/01 01:58:47;;;;;;;46.20;26.90;;;;;;;;;;5117758;28;20486;-70
2021/04/01 02:01:14;;;;;;;51.17;28.23;;;;;;;;;;5117222;28;20533;-69
2021/04/01 02:03:41;;;;;;;43.77;27.30;;;;;;;;;;5117137;28;20472;-69
2021/04/01 02:06:11;;;;;;;43.07;26.57;;;;;;;;;;5117953;28;20509;-70
2021/04/01 02:08:37;;;;;;;44.10;27.40;;;;;;;;;;5117878;28;20531;-70
2021/04/01 02:11:04;;;;;;;38.90;25.90;;;;;;;;;;5117864;28;21006;-70
2021/04/01 02:13:31;;;;;;;49.00;27.97;;;;;;;;;;5117318;28;20507;-70
2021/04/01 02:15:59;;;;;;;41.00;27.40;;;;;;;;;;5116926;28;20524;-70
2021/04/01 02:18:26;;;;;;;48.33;27.67;;;;;;;;;;5117166;28;20567;-69
2021/04/01 02:20:54;;;;;;;40.23;26.47;;;;;;;;;;5117323;28;20434;-69
2021/04/01 02:23:21;;;;;;;41.77;27.53;;;;;;;;;;5117323;28;20538;-69
2021/04/01 02:25:49;;;;;;;40.53;25.83;;;;;;;;;;5116947;28;20538;-70
2021/04/01 02:28:16;;;;;;;46.77;29.27;;;;;;;;;;5117220;28;20484;-70
2021/04/01 02:30:44;;;;;;;48.07;28.00;;;;;;;;;;5117182;28;20485;-69
2021/04/01 02:33:12;;;;;;;46.53;29.07;;;;;;;;;;5116616;28;20521;-70
2021/04/01 02:35:39;;;;;;;43.80;28.00;;;;;;;;;;5116547;28;20532;-70
2021/04/01 02:38:06;;;;;;;45.90;28.17;;;;;;;;;;5116440;28;21022;-70
2021/04/01 02:40:33;;;;;;;41.63;27.03;;;;;;;;;;5117111;28;20524;-70
2021/04/01 02:43:00;;;;;;;44.00;28.73;;;;;;;;;;5116719;28;20475;-70
2021/04/01 02:45:27;;;;;;;52.53;29.50;;;;;;;;;;5116380;28;21045;-70
2021/04/01 02:47:54;;;;;;;55.83;27.60;;;;;;;;;;5116334;28;20453;-70
2021/04/01 02:50:22;;;;;;;47.83;29.30;;;;;;;;;;5116512;28;21020;-70
2021/04/01 02:52:49;;;;;;;47.50;28.20;;;;;;;;;;5116951;28;20518;-69
2021/04/01 02:55:15;;;;;;;51.90;29.80;;;;;;;;;;5116793;28;20466;-70
2021/04/01 02:57:43;;;;;;;46.30;29.87;;;;;;;;;;5116286;28;20609;-70
2021/04/01 03:00:13;;;;;;;43.70;28.30;;;;;;;;;;5116342;28;20951;-70
2021/04/01 03:02:42;;;;;;;45.97;28.50;;;;;;;;;;5116863;28;20503;-70
2021/04/01 03:05:11;;;;;;;43.63;26.60;;;;;;;;;;5115521;28;20881;-70
2021/04/01 03:07:38;;;;;;;49.80;29.87;;;;;;;;;;5116227;28;20451;-70
2021/04/01 03:10:06;;;;;;;47.80;29.83;;;;;;;;;;5116189;27;20481;-70
2021/04/01 03:12:33;;;;;;;46.80;28.40;;;;;;;;;;5116223;28;20526;-69
2021/04/01 03:15:00;;;;;;;42.50;28.43;;;;;;;;;;5116130;28;20465;-70
2021/04/01 03:17:27;;;;;;;47.30;27.93;;;;;;;;;;5116777;28;20443;-70
2021/04/01 03:19:53;;;;;;;45.53;30.50;;;;;;;;;;5115980;28;20521;-69
2021/04/01 03:22:20;;;;;;;40.60;28.23;;;;;;;;;;5115981;28;20478;-70
2021/04/01 03:24:48;;;;;;;49.90;31.23;;;;;;;;;;5115906;28;20521;-69
2021/04/01 03:27:14;;;;;;;46.17;29.43;;;;;;;;;;5116061;28;20479;-69
2021/04/01 03:29:41;;;;;;;48.97;29.80;;;;;;;;;;5115770;28;20583;-70
2021/04/01 03:32:08;;;;;;;53.17;29.90;;;;;;;;;;5115567;28;20526;-69
2021/04/01 03:34:35;;;;;;;51.47;30.50;;;;;;;;;;5115719;28;20461;-69
2021/04/01 03:37:02;;;;;;;46.17;29.57;;;;;;;;;;5115369;28;20526;-69
2021/04/01 03:39:28;;;;;;;55.43;32.20;;;;;;;;;;5116366;28;20612;-69
2021/04/01 03:41:56;;;;;;;47.17;29.37;;;;;;;;;;5115605;28;20435;-69
2021/04/01 03:44:23;;;;;;;51.00;30.50;;;;;;;;;;5115196;28;20431;-69
2021/04/01 03:46:49;;;;;;;48.03;30.03;;;;;;;;;;5115541;28;20525;-69
2021/04/01 03:49:16;;;;;;;54.13;29.33;;;;;;;;;;5115419;28;20482;-69
2021/04/01 03:51:43;;;;;;;47.93;32.57;;;;;;;;;;5115317;28;20529;-69
2021/04/01 03:54:10;;;;;;;50.53;30.40;;;;;;;;;;5115016;28;20443;-69
2021/04/01 03:56:37;;;;;;;49.27;27.77;;;;;;;;;;5115470;28;20533;-70
2021/04/01 03:59:06;;;;;;;57.93;31.97;;;;;;;;;;5115242;28;20474;-68
2021/04/01 04:09:58;;;;;;;50.17;30.30;;;;;;;;;;5114963;28;20413;-69
2021/04/01 04:12:32;;;;;;;51.70;31.03;;;;;;;;;;5114736;28;20422;-69
2021/04/01 04:15:07;;;;;;;53.70;31.37;;;;;;;;;;5115038;28;20499;-69
2021/04/01 04:17:34;;;;;;;50.67;32.40;;;;;;;;;;5113779;28;20437;-68
2021/04/01 04:20:01;;;;;;;49.13;31.47;;;;;;;;;;5114884;28;20474;-69
2021/04/01 04:22:27;;;;;;;47.67;30.57;;;;;;;;;;5114841;28;20473;-69
2021/04/01 04:24:55;;;;;;;55.43;30.67;;;;;;;;;;5115464;28;20843;-69
2021/04/01 04:27:40;;;;;;;51.27;31.33;;;;;;;;;;5115396;28;20449;-67
2021/04/01 04:30:09;;;;;;;58.13;32.30;;;;;;;;;;5114868;28;20463;-69
2021/04/01 04:32:36;;;;;;;53.93;32.93;;;;;;;;;;5108265;28;20478;-69
2021/04/01 04:35:03;;;;;;;52.80;30.40;;;;;;;;;;5097542;28;20451;-69
2021/04/01 04:37:29;;;;;;;57.73;32.17;;;;;;;;;;5094062;28;20475;-69
2021/04/01 04:39:56;;;;;;;59.63;34.40;;;;;;;;;;5093766;28;20451;-69
2021/04/01 04:42:23;;;;;;;55.70;32.80;;;;;;;;;;5094148;28;20478;-69
2021/04/01 04:44:50;;;;;;;61.53;33.47;;;;;;;;;;5094087;28;20525;-68
2021/04/01 04:47:17;;;;;;;55.37;32.27;;;;;;;;;;5094040;28;20864;-68
2021/04/01 04:49:44;;;;;;;64.97;33.43;;;;;;;;;;5093669;28;20478;-69
2021/04/01 04:52:11;;;;;;;61.50;33.60;;;;;;;;;;5093149;28;20474;-69
2021/04/01 04:54:38;;;;;;;57.63;32.07;;;;;;;;;;5093908;28;20451;-68
2021/04/01 04:57:14;;;;;;;61.17;31.90;;;;;;;;;;5093665;28;20904;-69
2021/04/01 04:59:46;;;;;;;55.03;32.27;;;;;;;;;;5093769;28;20817;-68
2021/04/01 05:05:13;;;;;;;57.77;32.97;;;;;;;;;;5071032;28;20457;-69
2021/04/01 05:07:40;;;;;;;70.33;33.93;;;;;;;;;;5071457;28;20440;-70
2021/04/01 05:10:07;;;;;;;59.53;35.07;;;;;;;;;;5089859;28;20484;-70
2021/04/01 05:12:34;;;;;;;65.93;35.63;;;;;;;;;;5114033;28;20442;-70
2021/04/01 05:15:00;;;;;;;64.60;33.60;;;;;;;;;;5114027;28;20478;-68
2021/04/01 05:17:27;;;;;;;64.07;33.80;;;;;;;;;;5113941;28;20473;-69
2021/04/01 05:19:58;;;;;;;60.10;34.60;;;;;;;;;;5113841;28;20909;-69
2021/04/01 05:22:33;;;;;;;64.40;35.03;;;;;;;;;;5113971;28;20434;-69
2021/04/01 05:25:02;;;;;;;70.82;36.00;;;;;;;;;;5113873;28;20953;-76
2021/04/01 05:27:32;;;;;;;64.47;35.27;;;;;;;;;;5114120;28;20208;-66
2021/04/01 05:29:59;;;;;;;57.87;31.70;;;;;;;;;;5117213;28;20919;-67
2021/04/01 05:32:27;;;;;;;60.87;34.33;;;;;;;;;;5118460;28;20455;-67
2021/04/01 05:34:54;;;;;;;63.43;32.83;;;;;;;;;;5118043;28;20444;-67
2021/04/01 05:37:23;;;;;;;66.63;34.60;;;;;;;;;;5117694;28;20446;-66
2021/04/01 05:39:51;;;;;;;63.20;33.10;;;;;;;;;;5117884;28;20478;-66
2021/04/01 05:42:21;;;;;;;65.70;33.70;;;;;;;;;;5117615;28;20942;-67
2021/04/01 05:44:50;;;;;;;60.03;33.30;;;;;;;;;;5117940;28;20426;-67
2021/04/01 05:47:19;;;;;;;65.07;36.17;;;;;;;;;;5117820;28;20446;-66
2021/04/01 05:49:59;;;;;;;63.47;33.60;;;;;;;;;;5117974;28;20490;-66
2021/04/01 05:53:21;;;;;;;59.43;33.97;;;;;;;;;;5118460;28;20440;-66
2021/04/01 06:01:41;;;;;;;69.43;34.63;;;;;;;;;;5117819;28;20435;-66
2021/04/01 06:04:10;;;;;;;62.10;34.60;;;;;;;;;;5118036;28;20760;-66
2021/04/01 06:06:42;;;;;;;60.80;33.77;;;;;;;;;;5116989;28;20473;-67
2021/04/01 06:09:13;;;;;;;67.23;33.73;;;;;;;;;;5117594;28;20522;-66
2021/04/01 06:11:40;;;;;;;70.27;35.40;;;;;;;;;;5117630;28;20454;-66
2021/04/01 06:14:09;;;;;;;62.70;34.07;;;;;;;;;;5117554;28;20489;-67
2021/04/01 06:16:36;;;;;;;70.90;36.60;;;;;;;;;;5117101;27;20457;-67
2021/04/01 06:19:06;;;;;;;57.53;33.13;;;;;;;;;;5117147;28;20520;-66
2021/04/01 06:21:38;;;;;;;64.03;36.60;;;;;;;;;;5117411;28;20438;-66
2021/04/01 06:24:13;;;;;;;64.63;35.20;;;;;;;;;;5117201;28;20474;-66
2021/04/01 06:26:44;;;;;;;67.20;34.80;;;;;;;;;;5117246;28;20461;-66
2021/04/01 06:29:12;;;;;;;71.90;36.47;;;;;;;;;;5116890;28;20423;-67
2021/04/01 06:31:41;;;;;;;75.13;37.67;;;;;;;;;;5116679;27;21014;-66
2021/04/01 06:34:08;;;;;;;67.83;36.00;;;;;;;;;;5116902;28;20447;-67
2021/04/01 06:36:37;;;;;;;74.97;37.57;;;;;;;;;;5116880;28;20450;-67
2021/04/01 06:39:04;;;;;;;67.47;35.47;;;;;;;;;;5116719;28;20469;-67
2021/04/01 06:41:32;;;;;;;68.23;37.67;;;;;;;;;;5115627;28;20461;-66
2021/04/01 06:44:14;;;;;;;82.47;38.07;;;;;;;;;;5116637;28;21021;-66
2021/04/01 06:46:46;;;;;;;70.47;37.13;;;;;;;;;;5115166;28;20471;-67
2021/04/01 06:52:16;;;;;;;75.50;38.50;;;;;;;;;;5116972;28;20814;-67
2021/04/01 06:54:53;;;;;;;74.00;39.17;;;;;;;;;;5116245;28;20422;-67
2021/04/01 06:57:28;;;;;;;71.67;38.43;;;;;;;;;;5116508;28;20445;-67
2021/04/01 07:00:01;;;;;;;66.53;37.17;;;;;;;;;;5116938;28;20849;-67
2021/04/01 07:02:34;;;;;;;75.67;39.00;;;;;;;;;;5116459;28;20438;-67
2021/04/01 07:05:14;;;;;;;71.57;36.17;;;;;;;;;;5116326;28;20522;-66
2021/04/01 07:07:45;;;;;;;76.40;38.30;;;;;;;;;;5116633;28;20427;-67
2021/04/01 07:10:19;;;;;;;70.60;37.97;;;;;;;;;;5116726;28;20484;-67
2021/04/01 07:12:48;;;;;;;71.67;38.97;;;;;;;;;;5116677;28;20427;-66
2021/04/01 07:15:21;;;;;;;67.93;37.60;;;;;;;;;;5116650;28;20533;-67
2021/04/01 07:17:53;;;;;;;75.90;37.07;;;;;;;;;;5116120;28;20438;-67
2021/04/01 07:20:36;;;;;;;86.10;40.00;;;;;;;;;;5116564;28;20457;-66
2021/04/01 07:23:49;;;;;;;66.27;36.03;;;;;;;;;;5116797;28;20430;-66
2021/04/01 07:34:47;;;;;;;81.37;38.27;;;;;;;;;;5115462;28;20442;-67
2021/04/01 07:48:20;;;;;;;76.63;37.33;;;;;;;;;;5115156;28;20912;-66
2021/04/01 07:50:48;;;;;;;78.57;39.10;;;;;;;;;;5114867;28;20888;-66
2021/04/01 07:53:22;;;;;;;74.73;38.13;;;;;;;;;;5115863;28;20442;-67
2021/04/01 07:56:07;;;;;;;67.20;37.37;;;;;;;;;;5115031;28;20432;-66
2021/04/01 07:58:56;;;;;;;70.20;36.60;;;;;;;;;;5115405;28;20796;-67
2021/04/01 08:04:09;;;;;;;67.13;35.63;;;;;;;;;;5114542;28;20423;-67
2021/04/01 08:06:38;;;;;;;72.20;37.93;;;;;;;;;;5114910;28;20505;-66
2021/04/01 08:09:07;;;;;;;77.27;39.17;;;;;;;;;;5115142;28;20455;-67
2021/04/01 08:11:37;;;;;;;61.80;35.50;;;;;;;;;;5114866;28;20439;-66
2021/04/01 08:14:07;;;;;;;70.20;36.80;;;;;;;;;;5115339;28;20510;-68
2021/04/01 08:16:37;;;;;;;75.70;35.70;;;;;;;;;;5115143;28;20443;-66
2021/04/01 08:19:06;;;;;;;69.20;37.60;;;;;;;;;;5114408;28;20510;-66
2021/04/01 08:21:33;;;;;;;70.47;37.50;;;;;;;;;;5114384;28;20446;-66
2021/04/01 08:24:03;;;;;;;63.40;34.63;;;;;;;;;;5115204;28;20434;-66
2021/04/01 08:26:41;;;;;;;70.73;37.40;;;;;;;;;;5114261;28;20465;-66
2021/04/01 08:29:44;;;;;;;67.30;38.27;;;;;;;;;;5114624;28;20427;-67
2021/04/01 08:34:55;;;;;;;75.73;38.70;;;;;;;;;;5114422;28;20506;-66
2021/04/01 08:37:26;;;;;;;79.37;38.90;;;;;;;;;;5114257;28;20970;-67
2021/04/01 08:39:54;;;;;;;76.03;39.53;;;;;;;;;;5114649;28;20509;-66
2021/04/01 08:42:48;;;;;;;71.93;37.93;;;;;;;;;;5114336;28;20423;-67
2021/04/01 08:45:30;;;;;;;73.43;39.00;;;;;;;;;;5114793;28;20415;-68
2021/04/01 08:48:03;;;;;;;72.90;40.17;;;;;;;;;;5114605;28;20427;-67
2021/04/01 08:50:33;;;;;;;78.87;39.93;;;;;;;;;;5113965;28;20522;-66
2021/04/01 08:53:12;;;;;;;66.50;39.03;;;;;;;;;;5114032;28;20447;-68
2021/04/01 08:55:40;;;;;;;69.23;37.83;;;;;;;;;;5114187;28;20471;-67
2021/04/01 08:58:13;;;;;;;65.63;38.27;;;;;;;;;;5114806;28;20537;-68
2021/04/01 09:00:43;;;;;;;81.27;41.30;;;;;;;;;;5113924;28;20478;-66
2021/04/01 09:03:11;;;;;;;71.90;38.97;;;;;;;;;;5113713;28;20438;-66
2021/04/01 09:05:38;;;;;;;67.47;36.40;;;;;;;;;;5114162;28;20558;-66
2021/04/01 09:08:07;;;;;;;65.80;39.13;;;;;;;;;;5113715;28;20467;-66
2021/04/01 09:10:36;;;;;;;74.90;38.63;;;;;;;;;;5113733;28;20447;-66
2021/04/01 09:13:08;;;;;;;73.03;41.80;;;;;;;;;;5113936;28;20435;-66
2021/04/01 09:15:41;;;;;;;64.23;37.87;;;;;;;;;;5113767;28;20984;-67
2021/04/01 09:18:08;;;;;;;74.50;38.43;;;;;;;;;;5113897;28;20796;-66
2021/04/01 09:20:35;;;;;;;76.27;41.20;;;;;;;;;;5113613;28;20535;-67
2021/04/01 09:23:05;;;;;;;73.93;40.10;;;;;;;;;;5113898;28;20435;-67
2021/04/01 09:25:36;;;;;;;81.67;41.63;;;;;;;;;;5113604;28;20420;-67
2021/04/01 09:28:06;;;;;;;80.17;44.67;;;;;;;;;;5114044;28;20446;-67
2021/04/01 09:30:32;;;;;;;77.07;39.53;;;;;;;;;;5113792;28;20462;-66
2021/04/01 09:33:01;;;;;;;79.20;43.70;;;;;;;;;;5113432;28;20992;-67
2021/04/01 09:35:28;;;;;;;72.13;41.33;;;;;;;;;;5113400;28;20446;-66
2021/04/01 09:37:58;;;;;;;84.27;42.57;;;;;;;;;;5113744;28;20466;-67
2021/04/01 09:40:29;;;;;;;83.20;43.97;;;;;;;;;;5113883;28;20482;-66
2021/04/01 09:42:56;;;;;;;72.50;41.67;;;;;;;;;;5113592;28;20447;-66
2021/04/01 09:45:30;;;;;;;83.20;42.30;;;;;;;;;;5113324;28;20481;-66
2021/04/01 09:48:00;;;;;;;73.70;41.70;;;;;;;;;;5113603;28;20470;-67
2021/04/01 09:50:30;;;;;;;95.50;45.87;;;;;;;;;;5113780;28;20447;-67
2021/04/01 09:52:57;;;;;;;79.73;44.83;;;;;;;;;;5113907;28;20435;-66
2021/04/01 09:55:24;;;;;;;76.90;44.80;;;;;;;;;;5113451;28;20438;-67
2021/04/01 09:57:52;;;;;;;89.17;47.87;;;;;;;;;;5113949;28;20913;-67
2021/04/01 10:00:26;;;;;;;87.70;47.30;;;;;;;;;;5113916;28;20476;-67
2021/04/01 10:03:03;;;;;;;90.57;47.23;;;;;;;;;;5112326;28;20438;-67
2021/04/01 10:05:34;;;;;;;83.07;48.37;;;;;;;;;;5112690;28;20523;-67
2021/04/01 10:08:01;;;;;;;97.93;52.50;;;;;;;;;;5113687;28;20480;-66
2021/04/01 10:10:35;;;;;;;98.60;52.80;;;;;;;;;;5113191;28;20492;-66
2021/04/01 10:13:02;;;;;;;94.67;53.27;;;;;;;;;;5113451;28;20458;-68
2021/04/01 10:15:30;;;;;;;91.50;50.60;;;;;;;;;;5115703;28;20490;-67
2021/04/01 10:17:58;;;;;;;97.13;49.60;;;;;;;;;;5117553;28;20551;-67
2021/04/01 10:20:26;;;;;;;88.27;48.90;;;;;;;;;;5116829;28;21011;-67
2021/04/01 10:23:14;;;;;;;93.93;50.30;;;;;;;;;;5116080;28;20449;-66
2021/04/01 10:25:49;;;;;;;86.63;50.57;;;;;;;;;;5112237;28;20443;-67
2021/04/01 10:28:33;;;;;;;93.07;49.80;;;;;;;;;;5116812;28;20904;-66
2021/04/01 10:31:09;;;;;;;101.67;51.97;;;;;;;;;;5118705;28;20480;-67
2021/04/01 10:33:38;;;;;;;104.77;55.80;;;;;;;;;;5118038;28;20462;-67
2021/04/01 10:36:08;;;;;;;91.27;50.70;;;;;;;;;;5116528;28;20438;-66
2021/04/01 10:38:36;;;;;;;97.80;49.53;;;;;;;;;;5116643;28;20893;-66
2021/04/01 10:41:10;;;;;;;90.00;47.73;;;;;;;;;;5116828;28;20492;-67
2021/04/01 10:43:39;;;;;;;91.93;53.47;;;;;;;;;;5116272;28;20422;-67
2021/04/01 10:46:06;;;;;;;95.57;49.90;;;;;;;;;;5116485;28;20482;-66
2021/04/01 10:48:36;;;;;;;89.00;50.40;;;;;;;;;;5116908;28;20534;-67
2021/04/01 10:51:07;;;;;;;92.33;52.73;;;;;;;;;;5115717;28;20435;-67
2021/04/01 10:53:39;;;;;;;99.07;50.37;;;;;;;;;;5116502;28;20399;-69
2021/04/01 10:56:07;;;;;;;97.07;54.60;;;;;;;;;;5115984;28;20431;-68
2021/04/01 10:58:34;;;;;;;104.10;54.57;;;;;;;;;;5116326;28;20478;-67
2021/04/01 11:01:01;;;;;;;88.23;48.07;;;;;;;;;;5116598;28;20431;-67
2021/04/01 11:03:29;;;;;;;86.77;49.63;;;;;;;;;;5116145;28;20473;-67
2021/04/01 11:05:58;;;;;;;81.80;45.93;;;;;;;;;;5115814;28;20484;-66
2021/04/01 11:08:26;;;;;;;81.20;45.77;;;;;;;;;;5116573;28;20536;-67
2021/04/01 11:10:58;;;;;;;82.83;42.83;;;;;;;;;;5115830;28;20439;-67
2021/04/01 11:13:31;;;;;;;73.30;42.93;;;;;;;;;;5116024;28;20511;-67
2021/04/01 11:15:59;;;;;;;68.97;39.00;;;;;;;;;;5116506;28;20846;-67
2021/04/01 11:18:28;;;;;;;68.97;38.77;;;;;;;;;;5116382;28;20474;-66
2021/04/01 11:20:56;;;;;;;58.80;34.77;;;;;;;;;;5116282;27;20501;-67
2021/04/01 11:23:25;;;;;;;54.80;31.40;;;;;;;;;;5115359;27;20523;-68
2021/04/01 11:25:53;;;;;;;50.00;30.20;;;;;;;;;;5115210;28;20446;-67
2021/04/01 11:28:20;;;;;;;49.60;27.53;;;;;;;;;;5115800;28;20522;-67
2021/04/01 11:30:54;;;;;;;44.33;24.70;;;;;;;;;;5115957;28;20443;-66
2021/04/01 11:33:22;;;;;;;36.13;22.80;;;;;;;;;;5115763;28;20512;-67
2021/04/01 11:35:59;;;;;;;38.33;21.33;;;;;;;;;;5115267;28;20449;-67
2021/04/01 11:38:37;;;;;;;39.77;23.23;;;;;;;;;;5115834;28;20462;-67
2021/04/01 11:41:07;;;;;;;39.33;21.40;;;;;;;;;;5115864;28;20426;-68
2021/04/01 11:43:35;;;;;;;41.03;23.97;;;;;;;;;;5115766;28;20838;-68
2021/04/01 11:46:12;;;;;;;32.10;20.73;;;;;;;;;;5115877;28;20491;-67
2021/04/01 11:48:38;;;;;;;38.23;22.90;;;;;;;;;;5115543;27;20833;-67
2021/04/01 11:51:06;;;;;;;36.30;19.90;;;;;;;;;;5115230;28;20467;-68
2021/04/01 11:53:33;;;;;;;28.70;17.83;;;;;;;;;;5115525;28;20489;-68
2021/04/01 11:56:00;;;;;;;26.00;16.43;;;;;;;;;;5114701;28;21004;-66
2021/04/01 11:58:32;;;;;;;24.80;17.17;;;;;;;;;;5115208;28;20561;-66
2021/04/01 12:01:11;;;;;;;21.73;16.07;;;;;;;;;;5114999;28;20427;-66
2021/04/01 12:03:48;;;;;;;29.43;15.77;;;;;;;;;;5115153;28;20488;-65
2021/04/01 12:06:16;;;;;;;18.70;14.07;;;;;;;;;;5115690;28;20516;-67
2021/04/01 12:08:43;;;;;;;20.33;13.40;;;;;;;;;;5114979;28;20455;-68
2021/04/01 12:11:10;;;;;;;26.17;14.70;;;;;;;;;;5114536;28;20473;-66
2021/04/01 12:13:38;;;;;;;24.00;13.60;;;;;;;;;;5115182;28;20494;-67
2021/04/01 12:16:14;;;;;;;28.87;13.63;;;;;;;;;;5114587;28;20439;-67
2021/04/01 12:18:41;;;;;;;16.37;11.77;;;;;;;;;;5115002;28;20536;-67
2021/04/01 12:21:08;;;;;;;15.97;10.70;;;;;;;;;;5114372;27;20482;-67
2021/04/01 12:23:42;;;;;;;21.97;10.80;;;;;;;;;;5114273;27;20525;-67
2021/04/01 12:26:09;;;;;;;20.10;11.50;;;;;;;;;;5114298;28;20459;-67
2021/04/01 12:28:35;;;;;;;15.40;9.63;;;;;;;;;;5114558;28;20443;-66
2021/04/01 12:31:03;;;;;;;15.73;8.97;;;;;;;;;;5114466;28;20439;-67
2021/04/01 12:33:30;;;;;;;10.07;8.33;;;;;;;;;;5114524;28;20442;-67
2021/04/01 12:35:58;;;;;;;9.90;7.23;;;;;;;;;;5114531;28;20779;-66
2021/04/01 12:38:29;;;;;;;16.27;7.63;;;;;;;;;;5113418;28;20459;-66
2021/04/01 12:40:56;;;;;;;16.47;6.47;;;;;;;;;;5114368;28;20442;-66
2021/04/01 12:43:29;;;;;;;13.43;5.10;;;;;;;;;;5114116;28;20541;-67
2021/04/01 12:45:56;;;;;;;12.37;5.97;;;;;;;;;;5113504;28;20522;-66
2021/04/01 12:48:23;;;;;;;15.13;4.80;;;;;;;;;;5113947;28;20530;-68
2021/04/01 12:50:51;;;;;;;13.37;5.03;;;;;;;;;;5114123;28;20434;-69
2021/04/01 12:53:20;;;;;;;8.17;5.00;;;;;;;;;;5114085;28;20494;-67
2021/04/01 12:55:51;;;;;;;14.43;5.23;;;;;;;;;;5114182;28;20469;-68
2021/04/01 12:58:26;;;;;;;9.10;4.80;;;;;;;;;;5114977;28;20474;-68
2021/04/01 13:00:55;;;;;;;10.43;5.70;;;;;;;;;;5113864;28;20438;-67
2021/04/01 13:03:22;;;;;;;7.80;4.43;;;;;;;;;;5113747;28;21003;-69
2021/04/01 13:05:52;;;;;;;6.50;4.67;;;;;;;;;;5113843;28;20530;-68
2021/04/01 13:11:13;;;;;;;10.33;4.17;;;;;;;;;;5114067;28;20437;-68
2021/04/01 13:13:41;;;;;;;9.00;4.50;;;;;;;;;;5113541;28;20536;-68
2021/04/01 13:16:07;;;;;;;9.13;4.77;;;;;;;;;;5113418;28;20442;-67
2021/04/01 13:18:34;;;;;;;7.53;4.67;;;;;;;;;;5110695;28;22388;-67
2021/04/01 13:21:02;;;;;;;4.43;3.93;;;;;;;;;;5102293;28;20475;-66
2021/04/01 13:23:33;;;;;;;7.03;3.80;;;;;;;;;;5093653;28;20443;-68
2021/04/01 13:26:00;;;;;;;7.93;4.07;;;;;;;;;;5113419;28;20423;-66
2021/04/01 13:28:27;;;;;;;8.13;3.63;;;;;;;;;;5113577;28;20438;-66
2021/04/01 13:30:59;;;;;;;3.90;3.60;;;;;;;;;;5113420;28;20439;-67
2021/04/01 13:36:16;;;;;;;5.20;3.30;;;;;;;;;;5111509;28;20533;-67
2021/04/01 13:38:43;;;;;;;6.57;3.63;;;;;;;;;;5113434;28;20595;-67
2021/04/01 13:41:13;;;;;;;6.50;3.97;;;;;;;;;;5113596;28;20443;-67
2021/04/01 13:43:40;;;;;;;4.80;4.10;;;;;;;;;;5113877;28;20435;-67
2021/04/01 13:46:07;;;;;;;6.00;3.90;;;;;;;;;;5113727;28;20460;-67
2021/04/01 13:48:34;;;;;;;5.30;3.17;;;;;;;;;;5112681;28;20530;-66
2021/04/01 13:51:07;;;;;;;3.93;3.10;;;;;;;;;;5116926;28;20780;-66
2021/04/01 13:53:45;;;;;;;6.67;2.87;;;;;;;;;;5117607;28;20475;-67
2021/04/01 13:56:18;;;;;;;8.70;2.90;;;;;;;;;;5117225;28;20493;-66
2021/04/01 14:10:07;;;;;;;9.87;3.00;;;;;;;;;;5116837;28;20529;-67
2021/04/01 14:12:34;;;;;;;4.70;3.63;;;;;;;;;;5117115;28;20562;-67
2021/04/01 14:15:02;;;;;;;6.10;3.80;;;;;;;;;;5116952;28;20991;-68
2021/04/01 14:17:29;;;;;;;9.47;3.23;;;;;;;;;;5116836;28;20872;-69
2021/04/01 14:19:56;;;;;;;6.57;3.67;;;;;;;;;;5116750;28;21007;-68
2021/04/01 14:22:23;;;;;;;6.23;2.73;;;;;;;;;;5116856;28;20816;-69
2021/04/01 14:24:53;;;;;;;5.37;3.10;;;;;;;;;;5116976;28;20492;-66
2021/04/01 14:27:31;;;;;;;9.07;3.00;;;;;;;;;;5116694;27;20499;-67
2021/04/01 14:29:57;;;;;;;2.90;2.43;;;;;;;;;;5116723;28;20442;-68
2021/04/01 14:32:31;;;;;;;5.43;3.67;;;;;;;;;;5116402;28;20527;-68
2021/04/01 14:34:58;;;;;;;5.63;2.73;;;;;;;;;;5116901;28;20509;-68
2021/04/01 14:37:27;;;;;;;6.13;3.20;;;;;;;;;;5116596;28;20520;-68
2021/04/01 14:39:54;;;;;;;8.33;5.57;;;;;;;;;;5116928;28;20894;-67
2021/04/01 14:42:28;;;;;;;11.10;3.63;;;;;;;;;;5116759;28;20794;-68
2021/04/01 14:44:55;;;;;;;7.77;4.80;;;;;;;;;;5116478;28;20509;-68
2021/04/01 14:47:22;;;;;;;9.80;2.97;;;;;;;;;;5116385;28;20520;-68
2021/04/01 14:49:52;;;;;;;9.90;2.73;;;;;;;;;;5115969;28;20530;-67
2021/04/01 14:52:19;;;;;;;6.63;2.83;;;;;;;;;;5115915;27;20980;-68
2021/04/01 14:54:46;;;;;;;3.07;2.33;;;;;;;;;;5116188;28;20443;-69
2021/04/01 14:57:15;;;;;;;6.90;2.40;;;;;;;;;;5116636;28;20446;-69
2021/04/01 14:59:46;;;;;;;5.90;2.23;;;;;;;;;;5115827;28;20578;-69
2021/04/01 15:02:14;;;;;;;2.93;2.50;;;;;;;;;;5115680;28;20423;-69
2021/04/01 15:04:41;;;;;;;5.80;3.93;;;;;;;;;;5115757;28;20523;-68
2021/04/01 15:07:09;;;;;;;5.17;2.27;;;;;;;;;;5116561;28;20438;-68
2021/04/01 15:09:37;;;;;;;7.40;2.70;;;;;;;;;;5115602;28;20447;-68
2021/04/01 15:12:04;;;;;;;4.87;2.80;;;;;;;;;;5115672;28;20528;-68
2021/04/01 15:14:31;;;;;;;9.93;3.07;;;;;;;;;;5115689;28;20451;-68
2021/04/01 15:17:00;;;;;;;4.07;2.70;;;;;;;;;;5115874;28;20462;-69
2021/04/01 15:19:33;;;;;;;5.60;2.20;;;;;;;;;;5115225;28;20471;-68
2021/04/01 15:22:00;;;;;;;4.27;2.30;;;;;;;;;;5115413;28;20459;-68
2021/04/01 15:24:26;;;;;;;6.03;2.80;;;;;;;;;;5115429;28;20814;-68
2021/04/01 15:26:54;;;;;;;6.20;2.40;;;;;;;;;;5115990;28;20525;-69
2021/04/01 15:29:21;;;;;;;7.40;2.23;;;;;;;;;;5115600;28;20855;-67
2021/04/01 15:31:48;;;;;;;5.17;2.00;;;;;;;;;;5115173;28;20481;-68
2021/04/01 15:34:16;;;;;;;4.20;2.00;;;;;;;;;;5115025;28;20434;-68
2021/04/01 15:36:43;;;;;;;6.23;2.10;;;;;;;;;;5115225;28;20439;-67